createdAt,value
2019-05-12T00:00:07.906Z,73.77
2019-05-12T00:02:39.697Z,73.62
2019-05-12T00:05:11.091Z,73.77
2019-05-12T00:07:41.475Z,73.99
2019-05-12T00:10:11.268Z,74.09
2019-05-12T00:12:41.566Z,74.23
2019-05-12T00:15:12.029Z,74.43
2019-05-12T00:17:42.271Z,74.37
2019-05-12T00:20:12.740Z,74.22
2019-05-12T00:22:48.666Z,74.10
2019-05-12T00:25:19.736Z,73.86
2019-05-12T00:27:55.485Z,73.69
2019-05-12T00:30:38.829Z,73.86
2019-05-12T00:33:09.689Z,73.65
2019-05-12T00:35:40.113Z,73.27
2019-05-12T00:38:10.536Z,72.80
2019-05-12T00:40:40.161Z,72.81
2019-05-12T00:43:10.140Z,73.19
2019-05-12T00:45:42.786Z,73.57
2019-05-12T00:48:12.612Z,73.58
2019-05-12T00:50:42.190Z,73.38
2019-05-12T00:53:11.900Z,73.24
2019-05-12T00:55:42.524Z,72.78
2019-05-12T00:58:12.437Z,72.55
2019-05-12T01:00:43.328Z,72.14
2019-05-12T01:03:15.314Z,71.98
2019-05-12T01:05:45.235Z,71.63
2019-05-12T01:08:19.926Z,71.43
2019-05-12T01:10:49.608Z,71.27
2019-05-12T01:13:21.148Z,71.27
2019-05-12T01:15:50.955Z,71.04
2019-05-12T01:18:20.516Z,70.70
2019-05-12T01:20:50.191Z,70.70
2019-05-12T01:23:23.346Z,70.56
2019-05-12T01:25:52.974Z,70.48
2019-05-12T01:28:23.465Z,70.64
2019-05-12T01:30:58.213Z,70.64
2019-05-12T01:33:27.883Z,70.70
2019-05-12T01:35:58.703Z,71.52
2019-05-12T01:38:29.489Z,71.59
2019-05-12T01:40:59.168Z,71.95
2019-05-12T01:43:30.053Z,72.22
2019-05-12T01:46:00.304Z,72.47
2019-05-12T01:48:29.961Z,72.63
2019-05-12T01:50:59.561Z,72.38
2019-05-12T01:53:29.200Z,72.71
2019-05-12T01:56:00.190Z,73.11
2019-05-12T01:58:30.730Z,73.29
2019-05-12T02:01:03.054Z,73.29
2019-05-12T02:03:33.149Z,72.83
2019-05-12T02:06:03.615Z,72.77
2019-05-12T02:08:48.986Z,72.90
2019-05-12T02:11:34.470Z,73.20
2019-05-12T02:14:06.088Z,73.36
2019-05-12T02:16:35.691Z,73.30
2019-05-12T02:19:05.364Z,73.46
2019-05-12T02:21:38.237Z,73.51
2019-05-12T02:24:22.171Z,73.96
2019-05-12T02:26:40.039Z,73.89
2019-05-12T02:29:09.666Z,73.89
2019-05-12T02:31:40.685Z,73.90
2019-05-12T02:34:10.331Z,73.85
2019-05-12T02:36:39.904Z,74.08
2019-05-12T02:39:10.620Z,74.58
2019-05-12T02:41:41.029Z,74.34
2019-05-12T02:44:14.623Z,74.34
2019-05-12T02:46:44.689Z,74.48
2019-05-12T02:49:15.565Z,74.48
2019-05-12T02:51:46.296Z,74.18
2019-05-12T02:54:20.873Z,74.84
2019-05-12T02:56:55.046Z,74.84
2019-05-12T02:59:25.755Z,74.63
2019-05-12T03:01:57.423Z,74.66
2019-05-12T03:04:27.318Z,74.75
2019-05-12T03:07:02.351Z,74.94
2019-05-12T03:09:35.254Z,74.94
2019-05-12T03:12:06.017Z,75.13
2019-05-12T03:14:40.635Z,74.93
2019-05-12T03:17:08.675Z,74.87
2019-05-12T03:19:38.210Z,74.74
2019-05-12T03:22:09.338Z,74.77
2019-05-12T03:24:38.945Z,74.86
2019-05-12T03:27:08.400Z,74.93
2019-05-12T03:29:38.532Z,74.68
2019-05-12T03:32:08.954Z,75.04
2019-05-12T03:34:39.164Z,75.07
2019-05-12T03:37:09.048Z,75.07
2019-05-12T03:39:40.879Z,74.51
2019-05-12T03:42:10.459Z,74.55
2019-05-12T03:44:39.997Z,74.68
2019-05-12T03:47:10.721Z,74.68
2019-05-12T03:49:41.148Z,74.49
2019-05-12T03:52:10.752Z,74.49
2019-05-12T03:54:41.377Z,74.41
2019-05-12T03:57:11.049Z,74.11
2019-05-12T03:59:40.716Z,73.80
2019-05-12T04:02:10.740Z,73.68
2019-05-12T04:04:40.239Z,73.75
2019-05-12T04:07:09.874Z,73.59
2019-05-12T04:09:40.301Z,73.58
2019-05-12T04:12:10.475Z,73.54
2019-05-12T04:14:40.473Z,73.66
2019-05-12T04:17:10.320Z,73.63
2019-05-12T04:19:39.941Z,73.63
2019-05-12T04:22:09.848Z,73.26
2019-05-12T04:24:39.553Z,73.03
2019-05-12T04:27:08.935Z,72.66
2019-05-12T04:29:38.438Z,72.55
2019-05-12T04:32:09.406Z,72.09
2019-05-12T04:34:40.317Z,71.67
2019-05-12T04:37:10.438Z,71.23
2019-05-12T04:39:40.251Z,70.24
2019-05-12T04:42:10.066Z,69.99
2019-05-12T04:44:40.103Z,70.06
2019-05-12T04:47:14.528Z,70.12
2019-05-12T04:49:45.236Z,68.77
2019-05-12T04:52:15.677Z,68.77
2019-05-12T04:54:45.625Z,68.57
2019-05-12T04:57:20.969Z,68.25
2019-05-12T04:59:49.882Z,67.86
2019-05-12T05:02:19.426Z,67.82
2019-05-12T05:04:49.512Z,67.51
2019-05-12T05:07:19.470Z,67.41
2019-05-12T05:09:49.950Z,67.43
2019-05-12T05:12:19.752Z,67.85
2019-05-12T05:14:49.731Z,67.62
2019-05-12T05:17:19.858Z,67.53
2019-05-12T05:19:49.466Z,67.34
2019-05-12T05:22:24.325Z,67.49
2019-05-12T05:24:54.107Z,67.43
2019-05-12T05:27:24.701Z,67.17
2019-05-12T05:29:56.851Z,67.08
2019-05-12T05:32:26.950Z,66.89
2019-05-12T05:34:57.940Z,67.09
2019-05-12T05:37:30.736Z,66.83
2019-05-12T05:40:00.765Z,66.91
2019-05-12T05:42:33.362Z,66.95
2019-05-12T05:45:04.761Z,66.05
2019-05-12T05:47:34.067Z,65.31
2019-05-12T05:50:05.579Z,64.90
2019-05-12T05:52:38.940Z,64.03
2019-05-12T05:55:14.517Z,63.68
2019-05-12T05:57:41.158Z,63.01
2019-05-12T06:00:17.541Z,62.26
2019-05-12T06:02:44.080Z,62.26
2019-05-12T06:05:14.597Z,62.90
2019-05-12T06:07:44.942Z,62.59
2019-05-12T06:10:16.105Z,62.07
2019-05-12T06:12:54.363Z,61.28
2019-05-12T06:15:24.887Z,59.56
2019-05-12T06:17:54.644Z,60.40
2019-05-12T06:20:25.120Z,60.18
2019-05-12T06:22:57.585Z,60.18
2019-05-12T06:25:34.608Z,60.59
2019-05-12T06:28:01.297Z,60.45
2019-05-12T06:30:43.859Z,60.09
2019-05-12T06:33:07.752Z,60.15
2019-05-12T06:35:44.666Z,60.35
2019-05-12T06:38:14.166Z,59.94
2019-05-12T06:40:45.706Z,59.69
2019-05-12T06:43:15.967Z,59.58
2019-05-12T06:45:46.125Z,59.50
2019-05-12T06:48:19.227Z,59.48
2019-05-12T06:50:48.120Z,59.23
2019-05-12T06:53:20.052Z,59.26
2019-05-12T06:55:50.367Z,59.09
2019-05-12T06:58:27.578Z,59.05
2019-05-12T07:00:54.537Z,59.44
2019-05-12T07:03:25.798Z,59.19
2019-05-12T07:05:57.456Z,59.90
2019-05-12T07:08:32.896Z,59.53
2019-05-12T07:11:05.762Z,59.36
2019-05-12T07:13:34.236Z,59.05
2019-05-12T07:16:22.988Z,59.35
2019-05-12T07:18:54.220Z,58.96
2019-05-12T07:21:27.218Z,60.04
2019-05-12T07:24:00.430Z,59.59
2019-05-12T07:26:30.015Z,59.36
2019-05-12T07:28:59.965Z,59.39
2019-05-12T07:31:30.039Z,60.03
2019-05-12T07:34:07.782Z,59.26
2019-05-12T07:36:39.291Z,59.26
2019-05-12T07:39:09.881Z,59.25
2019-05-12T07:41:50.858Z,58.90
2019-05-12T07:44:18.261Z,58.90
2019-05-12T07:46:49.624Z,59.13
2019-05-12T07:49:22.610Z,58.46
2019-05-12T07:51:54.788Z,55.90
2019-05-12T07:54:29.413Z,56.95
2019-05-12T07:56:57.613Z,55.66
2019-05-12T07:59:38.914Z,56.04
2019-05-12T08:02:03.751Z,57.04
2019-05-12T08:04:39.806Z,54.73
2019-05-12T08:07:07.740Z,54.57
2019-05-12T08:09:43.242Z,54.52
2019-05-12T08:12:21.002Z,55.35
2019-05-12T08:14:48.902Z,56.02
2019-05-12T08:17:19.717Z,55.85
2019-05-12T08:19:49.938Z,56.10
2019-05-12T08:22:25.056Z,55.99
2019-05-12T08:24:53.753Z,56.92
2019-05-12T08:27:23.933Z,57.40
2019-05-12T08:30:01.114Z,57.30
2019-05-12T08:32:27.246Z,57.63
2019-05-12T08:34:57.889Z,57.83
2019-05-12T08:37:27.784Z,58.38
2019-05-12T08:40:04.250Z,57.73
2019-05-12T08:42:34.289Z,57.72
2019-05-12T08:45:04.103Z,58.06
2019-05-12T08:47:38.783Z,58.66
2019-05-12T08:50:07.328Z,58.42
2019-05-12T08:52:41.365Z,58.42
2019-05-12T08:55:09.958Z,57.82
2019-05-12T08:57:41.012Z,57.60
2019-05-12T09:00:13.419Z,57.35
2019-05-12T09:02:50.288Z,56.74
2019-05-12T09:05:17.078Z,56.74
2019-05-12T09:07:48.290Z,57.92
2019-05-12T09:10:18.201Z,58.17
2019-05-12T09:12:48.451Z,58.32
2019-05-12T09:15:19.283Z,58.85
2019-05-12T09:17:52.510Z,58.38
2019-05-12T09:20:24.107Z,58.95
2019-05-12T09:23:00.774Z,59.35
2019-05-12T09:25:25.841Z,58.09
2019-05-12T09:27:56.232Z,58.11
2019-05-12T09:30:30.823Z,56.55
2019-05-12T09:33:00.957Z,55.63
2019-05-12T09:35:34.856Z,56.10
2019-05-12T09:38:05.997Z,55.52
2019-05-12T09:40:35.985Z,55.96
2019-05-12T09:43:10.665Z,56.59
2019-05-12T09:45:40.276Z,57.00
2019-05-12T09:48:13.856Z,57.81
2019-05-12T09:50:46.235Z,58.70
2019-05-12T09:53:15.355Z,58.70
2019-05-12T09:55:45.262Z,58.32
2019-05-12T09:58:27.990Z,58.16
2019-05-12T10:00:57.986Z,59.11
2019-05-12T10:03:30.922Z,59.95
2019-05-12T10:05:59.516Z,59.61
2019-05-12T10:08:35.722Z,58.94
2019-05-12T10:11:03.870Z,58.68
2019-05-12T10:13:33.758Z,58.79
2019-05-12T10:16:08.821Z,59.24
2019-05-12T10:18:36.854Z,57.93
2019-05-12T10:21:14.763Z,58.50
2019-05-12T10:23:43.606Z,58.53
2019-05-12T10:26:14.776Z,59.06
2019-05-12T10:28:51.959Z,58.74
2019-05-12T10:31:18.794Z,58.84
2019-05-12T10:33:53.995Z,58.67
2019-05-12T10:36:21.619Z,58.70
2019-05-12T10:38:53.853Z,58.45
2019-05-12T10:41:23.787Z,58.08
2019-05-12T10:43:57.792Z,57.52
2019-05-12T10:46:28.611Z,58.58
2019-05-12T10:48:57.953Z,58.99
2019-05-12T10:51:28.409Z,59.19
2019-05-12T10:54:07.524Z,59.40
2019-05-12T10:56:29.710Z,58.53
2019-05-12T10:58:59.632Z,59.29
2019-05-12T11:01:29.569Z,59.64
2019-05-12T11:03:59.482Z,59.63
2019-05-12T11:06:29.127Z,60.61
2019-05-12T11:08:58.932Z,59.95
2019-05-12T11:11:32.972Z,59.92
2019-05-12T11:14:00.654Z,61.61
2019-05-12T11:16:32.212Z,61.43
2019-05-12T11:19:06.514Z,61.07
2019-05-12T11:21:35.684Z,60.37
2019-05-12T11:24:05.989Z,60.45
2019-05-12T11:26:43.293Z,60.27
2019-05-12T11:29:14.208Z,62.05
2019-05-12T11:31:44.268Z,61.65
2019-05-12T11:34:14.219Z,61.86
2019-05-12T11:36:47.181Z,62.32
2019-05-12T11:39:16.802Z,62.32
2019-05-12T11:41:55.230Z,62.30
2019-05-12T11:44:25.370Z,62.83
2019-05-12T11:46:55.302Z,62.33
2019-05-12T11:49:26.420Z,61.99
2019-05-12T11:52:01.070Z,61.32
2019-05-12T11:54:33.211Z,60.83
2019-05-12T11:57:03.236Z,59.94
2019-05-12T11:59:34.124Z,59.98
2019-05-12T12:02:04.675Z,59.85
2019-05-12T12:04:47.687Z,59.22
2019-05-12T12:07:19.999Z,59.07
2019-05-12T12:09:56.078Z,58.70
2019-05-12T12:12:25.185Z,57.82
2019-05-12T12:14:56.614Z,58.13
2019-05-12T12:17:32.633Z,57.10
2019-05-12T12:20:06.813Z,55.45
2019-05-12T12:22:45.748Z,54.23
2019-05-12T12:25:23.413Z,54.52
2019-05-12T12:27:54.511Z,53.98
2019-05-12T12:30:28.316Z,54.17
2019-05-12T12:33:04.030Z,54.17
2019-05-12T12:35:34.963Z,53.09
2019-05-12T12:38:04.876Z,52.86
2019-05-12T12:40:35.234Z,51.97
2019-05-12T12:43:06.803Z,52.74
2019-05-12T12:45:48.277Z,52.21
2019-05-12T12:48:24.707Z,52.48
2019-05-12T12:50:55.259Z,50.90
2019-05-12T12:53:27.667Z,51.13
2019-05-12T12:55:58.769Z,50.90
2019-05-12T12:58:31.436Z,50.50
2019-05-12T13:01:03.706Z,49.89
2019-05-12T13:03:34.988Z,49.14
2019-05-12T13:06:04.907Z,47.24
2019-05-12T13:08:34.715Z,47.97
2019-05-12T13:11:05.490Z,48.04
2019-05-12T13:13:35.559Z,47.85
2019-05-12T13:16:07.388Z,47.33
2019-05-12T13:18:37.036Z,45.83
2019-05-12T13:21:09.877Z,46.25
2019-05-12T13:23:41.255Z,46.42
2019-05-12T13:26:13.488Z,46.00
2019-05-12T13:28:45.472Z,45.42
2019-05-12T13:31:17.433Z,45.29
2019-05-12T13:33:54.893Z,45.63
2019-05-12T13:36:24.046Z,45.47
2019-05-12T13:38:53.713Z,45.30
2019-05-12T13:41:24.225Z,45.24
2019-05-12T13:43:55.932Z,44.18
2019-05-12T13:46:26.169Z,45.30
2019-05-12T13:48:59.722Z,45.68
2019-05-12T13:51:33.210Z,45.37
2019-05-12T13:54:05.189Z,44.94
2019-05-12T13:56:40.176Z,45.13
2019-05-12T13:59:20.719Z,45.44
2019-05-12T14:01:53.939Z,44.54
2019-05-12T14:04:29.525Z,45.88
2019-05-12T14:07:00.076Z,46.58
2019-05-12T14:09:34.268Z,46.34
2019-05-12T14:12:08.775Z,45.65
2019-05-12T14:14:43.458Z,45.71
2019-05-12T14:17:17.202Z,46.62
2019-05-12T14:19:54.862Z,47.15
2019-05-12T14:22:28.217Z,47.09
2019-05-12T14:25:10.862Z,46.37
2019-05-12T14:27:46.303Z,46.23
2019-05-12T14:30:41.267Z,46.69
2019-05-12T14:33:24.371Z,46.51
2019-05-12T14:36:15.795Z,46.24
2019-05-12T14:38:40.526Z,45.43
2019-05-12T14:41:14.511Z,44.36
2019-05-12T14:43:53.618Z,45.41
2019-05-12T14:46:29.514Z,44.77
2019-05-12T14:49:06.514Z,44.15
2019-05-12T14:51:44.440Z,43.45
2019-05-12T14:54:24.932Z,43.26
2019-05-12T14:56:57.754Z,43.74
2019-05-12T14:59:30.127Z,44.01
2019-05-12T15:02:03.291Z,44.25
2019-05-12T15:04:33.522Z,45.55
2019-05-12T15:07:09.944Z,46.03
2019-05-12T15:09:41.057Z,45.81
2019-05-12T15:12:14.137Z,45.71
2019-05-12T15:14:46.707Z,44.73
2019-05-12T15:17:22.499Z,45.12
2019-05-12T15:19:49.349Z,44.39
2019-05-12T15:22:19.301Z,43.96
2019-05-12T15:24:57.034Z,43.27
2019-05-12T15:27:38.054Z,44.25
2019-05-12T15:29:57.229Z,43.88
2019-05-12T15:32:27.971Z,43.48
2019-05-12T15:35:01.400Z,44.07
2019-05-12T15:37:34.988Z,45.07
2019-05-12T15:40:06.099Z,45.45
2019-05-12T15:42:37.057Z,45.46
2019-05-12T15:45:12.805Z,44.41
2019-05-12T15:47:40.846Z,43.75
2019-05-12T15:50:16.267Z,44.00
2019-05-12T15:52:47.051Z,44.29
2019-05-12T15:55:25.511Z,44.58
2019-05-12T15:57:57.969Z,43.85
2019-05-12T16:00:30.673Z,43.97
2019-05-12T16:03:01.752Z,44.17
2019-05-12T16:05:33.877Z,44.22
2019-05-12T16:08:04.149Z,43.77
2019-05-12T16:10:35.478Z,43.98
2019-05-12T16:13:06.995Z,42.50
2019-05-12T16:15:37.093Z,43.11
2019-05-12T16:18:09.960Z,43.00
2019-05-12T16:20:39.752Z,43.25
2019-05-12T16:23:24.949Z,42.86
2019-05-12T16:25:54.481Z,43.29
2019-05-12T16:28:27.397Z,42.79
2019-05-12T16:30:58.985Z,41.70
2019-05-12T16:33:33.425Z,40.97
2019-05-12T16:36:11.460Z,42.68
2019-05-12T16:38:41.275Z,43.34
2019-05-12T16:41:14.239Z,44.10
2019-05-12T16:43:50.360Z,44.45
2019-05-12T16:46:20.440Z,44.87
2019-05-12T16:48:54.514Z,45.53
2019-05-12T16:51:23.769Z,45.99
2019-05-12T16:53:54.016Z,46.28
2019-05-12T16:56:27.895Z,46.38
2019-05-12T16:58:56.802Z,46.57
2019-05-12T17:01:29.346Z,46.40
2019-05-12T17:03:58.117Z,45.23
2019-05-12T17:06:34.894Z,43.90
2019-05-12T17:09:00.395Z,42.97
2019-05-12T17:11:31.237Z,43.21
2019-05-12T17:14:02.232Z,43.74
2019-05-12T17:16:41.730Z,42.36
2019-05-12T17:19:10.357Z,42.35
2019-05-12T17:21:38.797Z,41.63
2019-05-12T17:24:08.704Z,42.49
2019-05-12T17:26:52.492Z,42.78
2019-05-12T17:29:24.280Z,42.79
2019-05-12T17:31:54.930Z,42.60
2019-05-12T17:34:27.504Z,42.20
2019-05-12T17:37:00.547Z,42.07
2019-05-12T17:39:35.756Z,41.65
2019-05-12T17:42:04.625Z,41.63
2019-05-12T17:44:36.732Z,41.75
2019-05-12T17:47:14.879Z,41.39
2019-05-12T17:50:24.178Z,41.25
2019-05-12T17:53:30.490Z,40.94
2019-05-12T18:02:31.035Z,41.94
2019-05-12T18:08:53.265Z,41.68
2019-05-12T18:15:11.019Z,42.25
2019-05-12T18:17:45.206Z,42.67
2019-05-12T18:20:18.890Z,43.07
2019-05-12T18:22:48.519Z,43.54
2019-05-12T18:25:30.165Z,43.58
2019-05-12T18:27:54.271Z,43.73
2019-05-12T18:30:25.448Z,43.91
2019-05-12T18:33:04.483Z,43.89
2019-05-12T18:35:27.600Z,44.01
2019-05-12T18:38:00.243Z,44.50
2019-05-12T18:40:30.299Z,45.02
2019-05-12T18:43:03.772Z,45.43
2019-05-12T18:45:35.246Z,45.43
2019-05-12T18:48:10.151Z,45.71
2019-05-12T18:50:38.139Z,46.09
2019-05-12T18:53:14.821Z,46.08
2019-05-12T18:55:44.229Z,46.41
2019-05-12T18:58:14.937Z,46.74
2019-05-12T19:00:44.961Z,47.10
2019-05-12T19:03:15.005Z,47.02
2019-05-12T19:05:45.031Z,47.72
2019-05-12T19:08:15.888Z,48.10
2019-05-12T19:10:51.148Z,48.33
2019-05-12T19:13:18.643Z,48.59
2019-05-12T19:15:52.784Z,48.53
2019-05-12T19:18:25.680Z,48.57
2019-05-12T19:20:54.188Z,48.83
2019-05-12T19:23:26.927Z,48.87
2019-05-12T19:25:56.128Z,48.74
2019-05-12T19:28:26.113Z,48.74
2019-05-12T19:31:01.019Z,48.73
2019-05-12T19:33:29.267Z,49.16
2019-05-12T19:36:04.785Z,49.81
2019-05-12T19:38:34.553Z,50.43
2019-05-12T19:41:04.842Z,50.43
2019-05-12T19:43:39.199Z,50.63
2019-05-12T19:46:09.750Z,50.65
2019-05-12T19:48:47.671Z,50.87
2019-05-12T19:51:21.903Z,51.55
2019-05-12T19:53:44.829Z,52.11
2019-05-12T19:56:18.664Z,52.25
2019-05-12T19:58:48.686Z,52.83
2019-05-12T20:01:26.173Z,53.18
2019-05-12T20:03:55.542Z,53.07
2019-05-12T20:06:25.601Z,53.32
2019-05-12T20:09:06.045Z,53.84
2019-05-12T20:11:31.588Z,53.79
2019-05-12T20:14:04.157Z,53.69
2019-05-12T20:16:34.727Z,53.60
2019-05-12T20:19:06.627Z,53.68
2019-05-12T20:21:36.691Z,53.80
2019-05-12T20:24:06.754Z,53.60
2019-05-12T20:26:38.252Z,53.67
2019-05-12T20:29:09.405Z,53.81
2019-05-12T20:31:47.023Z,54.09
2019-05-12T20:34:13.875Z,54.31
2019-05-12T20:36:45.839Z,54.50
2019-05-12T20:39:21.723Z,54.44
2019-05-12T20:41:54.604Z,54.79
2019-05-12T20:44:23.815Z,55.18
2019-05-12T20:46:55.969Z,55.36
2019-05-12T20:49:27.655Z,55.74
2019-05-12T20:52:03.822Z,56.06
2019-05-12T20:54:38.754Z,56.84
2019-05-12T20:57:08.873Z,56.84
2019-05-12T20:59:41.132Z,57.07
2019-05-12T21:02:14.119Z,57.53
2019-05-12T21:04:59.843Z,57.74
2019-05-12T21:07:21.726Z,58.07
2019-05-12T21:09:53.563Z,58.41
2019-05-12T21:12:24.284Z,58.79
2019-05-12T21:15:12.340Z,58.93
2019-05-12T21:17:39.689Z,59.28
2019-05-12T21:19:59.988Z,59.40
2019-05-12T21:22:30.629Z,59.59
2019-05-12T21:25:03.982Z,59.90
2019-05-12T21:27:33.478Z,60.15
2019-05-12T21:30:09.966Z,60.33
2019-05-12T21:32:36.371Z,60.33
2019-05-12T21:35:18.275Z,60.54
2019-05-12T21:37:45.766Z,60.54
2019-05-12T21:40:14.999Z,60.64
2019-05-12T21:42:45.104Z,60.90
2019-05-12T21:45:20.320Z,61.03
2019-05-12T21:47:50.580Z,61.05
2019-05-12T21:50:24.122Z,61.19
2019-05-12T21:52:59.385Z,61.60
2019-05-12T21:55:26.797Z,61.79
2019-05-12T21:58:10.554Z,62.17
2019-05-12T22:00:40.290Z,62.17
2019-05-12T22:03:15.413Z,62.44
2019-05-12T22:05:51.494Z,62.48
2019-05-12T22:08:21.989Z,62.75
2019-05-12T22:11:00.797Z,63.03
2019-05-12T22:13:28.056Z,63.66
2019-05-12T22:15:59.055Z,64.04
2019-05-12T22:18:29.829Z,63.86
2019-05-12T22:21:01.518Z,63.86
2019-05-12T22:23:33.767Z,64.51
2019-05-12T22:26:04.440Z,64.55
2019-05-12T22:28:34.857Z,64.50
2019-05-12T22:31:04.750Z,64.50
2019-05-12T22:33:40.849Z,64.83
2019-05-12T22:36:14.531Z,64.83
2019-05-12T22:38:39.605Z,65.22
2019-05-12T22:41:09.527Z,65.07
2019-05-12T22:43:45.353Z,65.17
2019-05-12T22:46:16.196Z,65.26
2019-05-12T22:48:45.240Z,65.26
2019-05-12T22:51:23.549Z,65.44
2019-05-12T22:53:47.145Z,65.88
2019-05-12T22:56:17.957Z,65.79
2019-05-12T22:58:51.893Z,66.00
2019-05-12T23:01:19.795Z,66.00
2019-05-12T23:03:51.606Z,66.23
2019-05-12T23:06:24.863Z,66.60
2019-05-12T23:08:54.218Z,66.67
2019-05-12T23:11:31.956Z,66.79
2019-05-12T23:13:56.302Z,66.84
2019-05-12T23:16:29.329Z,67.06
2019-05-12T23:19:10.525Z,67.11
2019-05-12T23:21:35.627Z,67.17
2019-05-12T23:24:06.034Z,67.23
2019-05-12T23:26:41.846Z,67.11
2019-05-12T23:29:08.405Z,67.00
2019-05-12T23:31:38.251Z,67.03
2019-05-12T23:34:12.179Z,67.01
2019-05-12T23:36:39.625Z,67.37
2019-05-12T23:39:09.467Z,67.50
2019-05-12T23:41:39.302Z,67.89
2019-05-12T23:44:09.765Z,68.01
2019-05-12T23:46:40.319Z,67.99
2019-05-12T23:49:10.282Z,68.25
2019-05-12T23:51:40.485Z,68.40
2019-05-12T23:54:11.463Z,68.26
2019-05-12T23:56:44.418Z,68.25
2019-05-12T23:59:15.882Z,68.30
